Time;durP1;ratioP1;P1;durP2;ratioP2;P2;SDS_P1;SDS_P2;PMS_P1;PMS_P2;Temp;Humidity;BMP_temperature;BMP_pressure;BME280_temperature;BME280_humidity;BME280_pressure;Samples;Min_cycle;Max_cycle;Signal;HPM_P1;HPM_P2
2022/03/03 00:02:28;;;;;;;99.28;48.35;;;;;;;2.67;100.00;102286.38;10159883;28;20050;-67
2022/03/03 00:07:25;;;;;;;93.47;48.88;;;;;;;2.69;100.00;102285.13;10141443;28;20720;-68
2022/03/03 00:12:22;;;;;;;104.85;45.72;;;;;;;2.73;100.00;102278.22;10150300;28;20050;-67
2022/03/03 00:17:18;;;;;;;107.43;48.55;;;;;;;2.84;100.00;102283.91;10148158;28;20042;-68
2022/03/03 00:22:15;;;;;;;117.57;49.65;;;;;;;2.78;100.00;102292.91;10140890;28;20042;-67
2022/03/03 00:27:12;;;;;;;89.90;41.97;;;;;;;2.85;100.00;102309.88;10154976;28;20047;-68
2022/03/03 00:32:08;;;;;;;85.10;39.45;;;;;;;2.81;100.00;102309.50;10156387;28;20050;-67
2022/03/03 00:37:05;;;;;;;107.10;38.78;;;;;;;2.69;100.00;102322.94;10153702;28;20097;-67
2022/03/03 00:42:02;;;;;;;75.07;36.78;;;;;;;2.65;100.00;102310.94;10153271;28;20054;-67
2022/03/03 00:46:58;;;;;;;80.75;36.15;;;;;;;2.69;100.00;102298.66;10148740;28;20054;-67
2022/03/03 00:51:55;;;;;;;70.10;34.60;;;;;;;2.70;100.00;102297.59;10155705;28;20078;-66
2022/03/03 00:56:51;;;;;;;76.53;35.25;;;;;;;2.89;100.00;102311.06;10146750;28;20050;-66
2022/03/03 01:01:48;;;;;;;72.22;37.40;;;;;;;2.77;100.00;102302.09;10155897;28;20461;-66
2022/03/03 01:06:44;;;;;;;66.28;35.58;;;;;;;2.79;100.00;102305.38;10154656;28;20050;-65
2022/03/03 01:11:41;;;;;;;70.00;35.53;;;;;;;2.87;100.00;102300.47;10154932;28;20078;-66
2022/03/03 01:16:38;;;;;;;64.13;32.40;;;;;;;2.88;100.00;102290.53;10149246;28;20105;-66
2022/03/03 01:21:34;;;;;;;62.42;32.33;;;;;;;2.77;100.00;102285.88;10145025;28;20066;-66
2022/03/03 01:26:30;;;;;;;60.13;32.63;;;;;;;2.67;100.00;102276.44;10142978;28;20039;-66
2022/03/03 01:31:27;;;;;;;57.45;31.30;;;;;;;2.69;100.00;102279.75;10155573;28;20054;-66
2022/03/03 01:36:24;;;;;;;60.70;32.65;;;;;;;2.68;100.00;102272.66;10137625;28;20078;-66
2022/03/03 01:41:21;;;;;;;66.97;33.58;;;;;;;2.51;100.00;102277.03;10140724;28;20419;-67
2022/03/03 01:46:18;;;;;;;52.17;27.17;;;;;;;2.48;100.00;102277.47;10150088;28;20112;-68
2022/03/03 01:51:14;;;;;;;51.05;28.25;;;;;;;2.34;100.00;102275.97;10155001;28;20130;-67
2022/03/03 01:56:12;;;;;;;64.40;33.38;;;;;;;2.45;100.00;102269.84;10135682;28;20513;-67
2022/03/03 02:01:08;;;;;;;50.38;29.30;;;;;;;2.45;100.00;102277.94;10153757;28;20134;-66
2022/03/03 02:06:05;;;;;;;52.42;29.35;;;;;;;2.48;100.00;102274.78;10144053;28;20185;-66
2022/03/03 02:11:01;;;;;;;56.80;30.13;;;;;;;2.33;100.00;102268.94;10161471;28;20085;-66
2022/03/03 02:15:58;;;;;;;56.25;30.40;;;;;;;2.32;100.00;102257.28;10133970;28;20099;-66
2022/03/03 02:20:54;;;;;;;62.15;30.42;;;;;;;2.18;100.00;102272.84;10149848;28;20046;-66
2022/03/03 02:25:51;;;;;;;57.03;29.27;;;;;;;2.22;100.00;102257.81;10143083;28;20150;-66
2022/03/03 02:30:48;;;;;;;53.20;28.90;;;;;;;2.24;100.00;102261.13;10154185;28;20047;-65
2022/03/03 02:35:44;;;;;;;52.92;28.83;;;;;;;2.21;100.00;102240.00;10126184;28;20053;-65
2022/03/03 02:40:41;;;;;;;53.40;28.70;;;;;;;2.24;100.00;102253.03;10116722;28;20096;-66
2022/03/03 02:45:37;;;;;;;49.97;26.35;;;;;;;2.25;100.00;102252.00;10135650;28;20101;-66
2022/03/03 02:50:34;;;;;;;47.53;25.00;;;;;;;2.09;100.00;102252.59;10146899;28;20072;-66
2022/03/03 02:55:30;;;;;;;51.38;26.98;;;;;;;2.15;100.00;102240.06;10142521;28;20062;-66
2022/03/03 03:00:38;;;;;;;50.10;25.08;;;;;;;1.98;100.00;102229.03;10138409;28;20050;-67
2022/03/03 03:05:36;;;;;;;53.58;26.80;;;;;;;2.07;100.00;102217.72;10156737;28;20130;-67
2022/03/03 03:10:32;;;;;;;49.38;25.55;;;;;;;1.97;100.00;102221.97;10157237;28;20518;-66
2022/03/03 03:15:29;;;;;;;46.20;24.20;;;;;;;1.93;100.00;102223.47;10145737;28;20042;-66
2022/03/03 03:20:25;;;;;;;41.80;22.58;;;;;;;1.77;100.00;102223.00;10144799;28;20081;-66
2022/03/03 03:25:22;;;;;;;61.90;25.50;;;;;;;1.75;100.00;102208.91;10150391;28;20117;-65
2022/03/03 03:30:18;;;;;;;44.78;23.52;;;;;;;1.66;100.00;102221.84;10155475;28;20108;-65
2022/03/03 03:35:15;;;;;;;48.05;23.00;;;;;;;1.46;100.00;102232.81;10152156;28;20046;-68
2022/03/03 03:40:12;;;;;;;43.05;23.40;;;;;;;1.58;100.00;102240.16;10155740;28;20092;-66
2022/03/03 03:45:10;;;;;;;43.15;22.45;;;;;;;1.53;100.00;102213.06;10134896;28;20078;-66
2022/03/03 03:50:09;;;;;;;41.90;23.05;;;;;;;1.59;100.00;102206.78;10135494;28;20047;-66
2022/03/03 03:55:08;;;;;;;41.33;20.77;;;;;;;1.51;100.00;102212.44;10139192;28;20089;-67
2022/03/03 04:00:12;;;;;;;47.72;22.60;;;;;;;1.54;100.00;102203.94;10163326;28;20050;-66
2022/03/03 04:05:10;;;;;;;50.45;24.20;;;;;;;1.51;100.00;102207.06;10159340;28;20456;-68
2022/03/03 04:10:07;;;;;;;49.97;22.90;;;;;;;1.51;100.00;102207.06;10130903;28;20070;-69
2022/03/03 04:15:04;;;;;;;41.17;20.85;;;;;;;1.14;100.00;102201.53;10157073;28;20121;-68
2022/03/03 04:20:03;;;;;;;43.83;21.70;;;;;;;1.49;100.00;102193.81;10151447;28;20085;-71
2022/03/03 04:25:00;;;;;;;44.10;21.15;;;;;;;1.53;100.00;102204.97;10149446;28;20047;-67
2022/03/03 04:29:58;;;;;;;46.60;21.42;;;;;;;1.39;100.00;102194.31;10157337;28;20085;-68
2022/03/03 04:34:54;;;;;;;47.30;20.85;;;;;;;1.11;100.00;102196.59;10155736;28;20108;-68
2022/03/03 04:39:51;;;;;;;46.78;21.88;;;;;;;1.38;100.00;102192.66;10157090;28;20074;-68
2022/03/03 04:44:47;;;;;;;47.05;22.50;;;;;;;1.55;100.00;102192.09;10154149;28;20493;-68
2022/03/03 04:49:44;;;;;;;44.17;21.27;;;;;;;1.43;100.00;102184.72;10133510;28;20050;-68
2022/03/03 04:54:42;;;;;;;39.67;20.13;;;;;;;1.34;100.00;102196.81;10151327;28;20492;-69
2022/03/03 04:59:38;;;;;;;37.85;20.10;;;;;;;1.47;100.00;102191.34;10142849;28;20034;-69
2022/03/03 05:04:35;;;;;;;49.40;20.70;;;;;;;1.33;100.00;102183.59;10144790;28;20129;-69
2022/03/03 05:09:32;;;;;;;34.42;18.10;;;;;;;1.23;100.00;102175.97;10149023;28;20038;-69
2022/03/03 05:14:28;;;;;;;30.33;16.67;;;;;;;1.20;100.00;102163.78;10146221;28;20519;-68
2022/03/03 05:19:25;;;;;;;32.85;17.80;;;;;;;1.26;100.00;102167.47;10145138;28;20214;-68
2022/03/03 05:24:21;;;;;;;39.08;17.30;;;;;;;1.15;100.00;102143.94;10149368;28;20081;-68
2022/03/03 05:29:18;;;;;;;40.67;18.85;;;;;;;1.19;100.00;102150.53;10147732;28;20091;-71
2022/03/03 05:34:15;;;;;;;40.65;20.35;;;;;;;1.22;100.00;102155.47;10154771;28;20043;-71
2022/03/03 05:39:13;;;;;;;41.13;20.17;;;;;;;1.11;100.00;102134.63;10142122;28;20093;-71
2022/03/03 05:44:13;;;;;;;57.55;20.33;;;;;;;1.02;100.00;102140.31;10150279;28;20042;-69
2022/03/03 05:49:10;;;;;;;50.03;21.02;;;;;;;1.14;100.00;102147.66;10147510;28;20050;-75
2022/03/03 05:54:07;;;;;;;49.50;20.17;;;;;;;0.99;100.00;102148.81;10147567;28;20157;-75
2022/03/03 05:59:06;;;;;;;36.85;18.00;;;;;;;1.16;100.00;102145.56;10145629;28;20046;-75
2022/03/03 06:04:04;;;;;;;63.83;20.60;;;;;;;1.02;100.00;102145.69;10140042;28;20077;-73
2022/03/03 06:09:08;;;;;;;41.70;19.70;;;;;;;1.12;100.00;102166.75;10145168;28;20081;-73
2022/03/03 06:14:07;;;;;;;39.85;21.60;;;;;;;1.22;100.00;102171.66;10136562;28;20058;-73
2022/03/03 06:19:03;;;;;;;38.80;20.65;;;;;;;1.49;100.00;102182.22;10132386;28;20066;-70
2022/03/03 06:24:00;;;;;;;41.72;20.42;;;;;;;1.35;100.00;102193.09;10130671;28;20680;-72
2022/03/03 06:28:58;;;;;;;40.85;19.13;;;;;;;1.36;100.00;102197.44;10141486;28;20469;-73
2022/03/03 06:33:54;;;;;;;37.35;18.60;;;;;;;1.47;100.00;102215.59;10133414;28;20100;-72
2022/03/03 06:38:51;;;;;;;35.78;17.38;;;;;;;1.39;100.00;102199.72;10120408;28;20043;-72
2022/03/03 06:43:47;;;;;;;42.17;18.27;;;;;;;0.86;100.00;102205.47;10132368;28;20039;-72
2022/03/03 06:48:47;;;;;;;38.10;17.50;;;;;;;1.18;100.00;102208.16;10141252;28;20050;-72
2022/03/03 06:53:45;;;;;;;39.40;17.08;;;;;;;1.09;100.00;102214.84;10156270;28;20169;-72
2022/03/03 06:58:41;;;;;;;29.95;16.23;;;;;;;1.19;100.00;102209.81;10145265;28;20039;-72
2022/03/03 07:03:42;;;;;;;34.58;15.45;;;;;;;1.28;100.00;102219.28;10142754;28;20050;-72
2022/03/03 07:08:38;;;;;;;35.20;17.00;;;;;;;1.32;100.00;102220.47;10138182;28;20085;-72
2022/03/03 07:13:37;;;;;;;34.58;16.92;;;;;;;1.35;100.00;102236.22;10139615;28;20104;-72
2022/03/03 07:18:41;;;;;;;32.63;17.02;;;;;;;1.51;100.00;102239.41;10120411;28;20034;-72
2022/03/03 07:23:39;;;;;;;29.40;14.70;;;;;;;1.47;100.00;102247.94;10139028;28;20082;-72
2022/03/03 07:28:39;;;;;;;21.88;12.00;;;;;;;1.41;100.00;102232.63;10122534;28;20035;-72
2022/03/03 07:33:54;;;;;;;30.45;14.38;;;;;;;1.43;100.00;102249.41;10149407;28;20046;-72
2022/03/03 07:39:13;;;;;;;26.48;13.70;;;;;;;1.39;100.00;102237.44;10136468;28;20043;-72
2022/03/03 07:44:10;;;;;;;27.25;13.02;;;;;;;1.45;100.00;102233.84;10144772;28;20106;-72
2022/03/03 07:49:08;;;;;;;23.88;12.20;;;;;;;1.54;100.00;102233.59;10111997;28;20559;-72
2022/03/03 07:54:05;;;;;;;25.77;12.70;;;;;;;1.41;100.00;102229.94;10144202;28;20051;-71
2022/03/03 07:59:04;;;;;;;31.33;14.32;;;;;;;1.61;100.00;102235.19;10122734;28;20069;-71
2022/03/03 08:04:01;;;;;;;26.92;13.32;;;;;;;1.63;100.00;102232.28;10136206;28;20054;-72
2022/03/03 08:09:01;;;;;;;26.08;13.63;;;;;;;1.88;100.00;102233.06;10133184;28;20518;-71
2022/03/03 08:13:58;;;;;;;25.13;11.68;;;;;;;1.91;100.00;102222.91;10153420;28;20046;-71
2022/03/03 08:18:57;;;;;;;26.02;11.80;;;;;;;1.96;100.00;102225.75;10132885;28;20058;-72
2022/03/03 08:23:54;;;;;;;27.00;13.05;;;;;;;2.14;100.00;102243.81;10145385;28;20520;-72
2022/03/03 08:28:50;;;;;;;23.02;12.45;;;;;;;2.22;100.00;102247.03;10151446;28;20042;-72
2022/03/03 08:33:54;;;;;;;26.95;12.88;;;;;;;2.18;100.00;102245.84;10154527;28;20097;-72
2022/03/03 08:38:52;;;;;;;26.73;12.55;;;;;;;2.12;100.00;102238.66;10128102;28;20042;-72
2022/03/03 08:43:52;;;;;;;25.35;12.80;;;;;;;2.37;100.00;102243.13;10121133;28;20047;-72
2022/03/03 08:48:50;;;;;;;26.83;12.70;;;;;;;2.09;100.00;102236.41;10154191;28;20496;-72
2022/03/03 08:53:47;;;;;;;28.85;12.48;;;;;;;2.38;100.00;102234.00;10154642;28;20102;-72
2022/03/03 08:58:44;;;;;;;27.35;12.90;;;;;;;2.53;100.00;102227.16;10128337;28;20097;-72
2022/03/03 09:03:43;;;;;;;25.23;12.57;;;;;;;2.14;100.00;102231.16;10138380;28;20108;-72
2022/03/03 09:08:39;;;;;;;26.13;12.02;;;;;;;2.43;100.00;102220.63;10149355;28;20043;-72
2022/03/03 09:13:36;;;;;;;23.92;12.25;;;;;;;2.70;100.00;102221.13;10153291;28;20652;-72
2022/03/03 09:18:34;;;;;;;25.08;11.60;;;;;;;2.89;100.00;102221.91;10113559;28;20059;-71
2022/03/03 09:23:31;;;;;;;25.40;12.27;;;;;;;3.08;100.00;102228.91;10143924;28;20038;-72
2022/03/03 09:28:27;;;;;;;23.52;10.27;;;;;;;3.23;100.00;102224.97;10125709;28;20070;-70
2022/03/03 09:33:24;;;;;;;27.92;12.38;;;;;;;3.42;100.00;102217.59;10147835;28;20523;-69
2022/03/03 09:38:21;;;;;;;21.52;10.48;;;;;;;3.39;100.00;102218.88;10144099;28;20034;-72
2022/03/03 09:43:18;;;;;;;21.75;11.02;;;;;;;3.39;100.00;102229.69;10147083;28;20417;-72
2022/03/03 09:48:14;;;;;;;20.90;9.27;;;;;;;3.19;100.00;102234.59;10145624;28;20461;-72
2022/03/03 09:53:13;;;;;;;15.65;7.90;;;;;;;2.87;100.00;102237.53;10146983;28;20074;-72
2022/03/03 09:58:10;;;;;;;14.40;7.72;;;;;;;2.76;100.00;102224.78;10145260;28;20046;-72
2022/03/03 10:03:13;;;;;;;15.63;7.07;;;;;;;3.31;100.00;102232.72;10153905;28;20074;-72
2022/03/03 10:08:12;;;;;;;15.95;8.65;;;;;;;3.19;100.00;102229.19;10146026;28;20046;-71
2022/03/03 10:13:10;;;;;;;14.80;7.60;;;;;;;3.07;100.00;102231.84;10138701;28;20042;-70
2022/03/03 10:18:11;;;;;;;17.08;8.43;;;;;;;3.44;100.00;102232.53;10138469;28;20042;-71
2022/03/03 10:23:08;;;;;;;15.38;7.63;;;;;;;3.71;100.00;102242.88;10146430;28;20515;-71
2022/03/03 10:28:26;;;;;;;13.32;8.15;;;;;;;3.79;100.00;102247.97;10144222;28;20137;-71
2022/03/03 10:33:26;;;;;;;13.75;6.72;;;;;;;3.93;100.00;102249.38;10144005;28;20833;-71
2022/03/03 10:38:22;;;;;;;10.32;6.15;;;;;;;3.83;100.00;102257.25;10136105;28;20081;-72
2022/03/03 10:43:19;;;;;;;11.18;6.07;;;;;;;3.77;100.00;102252.78;10148672;28;20100;-71
2022/03/03 10:48:21;;;;;;;13.73;7.22;;;;;;;4.03;100.00;102250.66;10128523;28;20465;-71
2022/03/03 10:53:19;;;;;;;13.37;6.60;;;;;;;3.78;100.00;102259.81;10152280;28;20050;-72
2022/03/03 10:58:15;;;;;;;10.07;5.72;;;;;;;4.17;100.00;102246.66;10146848;28;20043;-71
2022/03/03 11:03:12;;;;;;;11.15;5.38;;;;;;;3.95;100.00;102249.97;10135662;28;20074;-71
2022/03/03 11:08:09;;;;;;;11.20;6.57;;;;;;;4.32;100.00;102244.28;10138171;28;20046;-72
2022/03/03 11:13:06;;;;;;;11.30;6.13;;;;;;;4.38;100.00;102243.31;10139463;28;20046;-71
2022/03/03 11:18:03;;;;;;;13.65;6.30;;;;;;;4.57;100.00;102235.00;10143405;28;20607;-72
2022/03/03 11:22:59;;;;;;;13.82;6.65;;;;;;;4.71;100.00;102236.41;10144147;28;20398;-72
2022/03/03 11:28:08;;;;;;;13.57;6.22;;;;;;;4.84;100.00;102230.69;10140980;28;20101;-72
2022/03/03 11:33:17;;;;;;;14.20;7.25;;;;;;;4.91;100.00;102243.28;10139846;28;20058;-72
2022/03/03 11:38:16;;;;;;;11.63;5.95;;;;;;;5.10;100.00;102244.69;10142073;28;20078;-72
2022/03/03 11:43:15;;;;;;;13.25;6.65;;;;;;;4.97;100.00;102243.13;10156752;28;20416;-71
2022/03/03 11:48:15;;;;;;;10.43;5.80;;;;;;;5.07;100.00;102218.91;10148615;28;20121;-72
2022/03/03 11:53:11;;;;;;;10.35;6.13;;;;;;;4.91;100.00;102245.97;10145969;28;20066;-71
2022/03/03 11:58:27;;;;;;;8.50;4.78;;;;;;;5.58;100.00;102224.38;10144364;28;20043;-71
2022/03/03 12:03:25;;;;;;;10.63;5.57;;;;;;;5.67;100.00;102222.88;10147531;28;21270;-71
2022/03/03 12:08:31;;;;;;;11.55;6.30;;;;;;;6.08;100.00;102215.38;10146100;28;20417;-71
2022/03/03 12:13:30;;;;;;;13.35;6.30;;;;;;;6.48;100.00;102219.69;10145688;28;20105;-71
2022/03/03 12:18:34;;;;;;;10.73;6.45;;;;;;;7.49;100.00;102211.97;10129685;28;20093;-71
2022/03/03 12:23:35;;;;;;;11.15;5.60;;;;;;;7.96;100.00;102213.91;10138674;28;20062;-71
2022/03/03 12:28:36;;;;;;;12.23;6.38;;;;;;;8.10;100.00;102220.53;10141101;28;20133;-71
2022/03/03 12:33:33;;;;;;;11.90;5.80;;;;;;;8.33;100.00;102222.03;10143441;28;20577;-71
2022/03/03 12:38:30;;;;;;;10.60;6.60;;;;;;;8.31;100.00;102204.28;10142343;28;20035;-71
2022/03/03 12:43:26;;;;;;;13.40;6.60;;;;;;;8.89;100.00;102205.06;10146619;28;20054;-72
2022/03/03 12:48:28;;;;;;;12.80;6.13;;;;;;;9.18;100.00;102202.59;10141404;28;20047;-71
2022/03/03 12:53:40;;;;;;;11.15;5.53;;;;;;;10.69;100.00;102186.41;10152884;28;20077;-70
2022/03/03 12:58:36;;;;;;;10.73;5.82;;;;;;;11.23;97.10;102190.13;10116909;28;20461;-70
2022/03/03 13:03:37;;;;;;;10.25;6.07;;;;;;;11.96;94.15;102179.03;10119380;28;20046;-70
2022/03/03 13:08:36;;;;;;;11.23;5.85;;;;;;;12.62;90.38;102182.06;10115711;28;20054;-71
2022/03/03 13:13:45;;;;;;;9.93;5.32;;;;;;;13.10;85.56;102173.66;10123555;28;20065;-71
2022/03/03 13:18:42;;;;;;;10.15;5.45;;;;;;;13.86;81.87;102187.19;10114948;28;20074;-72
2022/03/03 13:23:44;;;;;;;8.02;4.53;;;;;;;14.70;76.84;102172.25;10153850;28;20046;-72
2022/03/03 13:28:51;;;;;;;7.33;3.80;;;;;;;14.98;66.75;102183.19;10171452;28;20687;-72
2022/03/03 13:34:06;;;;;;;6.45;3.45;;;;;;;15.04;60.84;102176.41;10159126;28;20050;-72
2022/03/03 13:39:05;;;;;;;6.38;3.35;;;;;;;14.79;60.03;102169.59;10113742;28;20051;-70
2022/03/03 13:44:18;;;;;;;5.43;3.25;;;;;;;15.17;56.85;102170.03;10134775;28;20113;-72
2022/03/03 13:49:20;;;;;;;6.43;3.25;;;;;;;15.59;58.53;102165.06;10114556;28;20053;-72
2022/03/03 13:54:17;;;;;;;8.00;4.05;;;;;;;16.12;55.38;102150.38;10154653;28;20046;-73
2022/03/03 13:59:13;;;;;;;5.90;2.90;;;;;;;17.05;56.01;102159.41;10162870;28;20115;-72
2022/03/03 14:04:14;;;;;;;6.85;3.25;;;;;;;17.21;51.69;102156.97;10146456;28;20572;-72
2022/03/03 14:09:24;;;;;;;5.75;3.00;;;;;;;16.35;48.94;102164.09;10133717;28;20153;-73
2022/03/03 14:14:22;;;;;;;7.38;2.90;;;;;;;16.32;49.82;102156.44;10139469;28;20063;-72
2022/03/03 14:19:18;;;;;;;5.80;2.60;;;;;;;16.44;49.10;102162.16;10139083;28;20084;-71
2022/03/03 14:24:17;;;;;;;6.35;2.70;;;;;;;16.47;51.00;102163.44;10136536;28;20786;-71
2022/03/03 14:29:26;;;;;;;5.72;3.17;;;;;;;16.27;51.64;102151.06;10136017;28;20077;-71
2022/03/03 14:34:23;;;;;;;4.47;2.30;;;;;;;15.71;50.07;102151.56;10141982;28;20050;-71
2022/03/03 14:39:22;;;;;;;8.80;2.92;;;;;;;16.00;58.21;102150.19;10153844;28;20092;-72
2022/03/03 14:44:19;;;;;;;7.13;3.67;;;;;;;15.23;50.68;102151.44;10166270;28;20043;-71
2022/03/03 14:49:15;;;;;;;6.05;3.30;;;;;;;15.39;51.01;102149.06;10118968;28;20129;-72
2022/03/03 14:54:12;;;;;;;9.27;3.10;;;;;;;15.48;50.96;102131.47;10120123;28;21277;-72
2022/03/03 14:59:10;;;;;;;5.43;3.28;;;;;;;15.66;48.59;102134.31;10140891;28;20761;-72
2022/03/03 15:04:14;;;;;;;7.03;3.72;;;;;;;15.67;49.52;102128.47;10130724;28;20576;-70
2022/03/03 15:09:11;;;;;;;5.78;2.85;;;;;;;15.57;49.22;102121.31;10141998;28;20141;-74
2022/03/03 15:14:08;;;;;;;7.50;3.42;;;;;;;15.47;51.52;102118.00;10144450;28;20104;-74
2022/03/03 15:19:07;;;;;;;9.93;4.05;;;;;;;15.18;52.57;102116.56;10150486;28;20051;-74
2022/03/03 15:24:08;;;;;;;8.98;3.70;;;;;;;13.61;50.93;102114.28;10149341;28;20050;-74
2022/03/03 15:29:08;;;;;;;7.03;3.45;;;;;;;13.47;56.25;102108.75;10148334;28;20085;-72
2022/03/03 15:39:23;;;;;;;7.57;3.65;;;;;;;12.49;64.79;102119.72;10144220;28;20452;-69
2022/03/03 15:44:20;;;;;;;6.95;3.70;;;;;;;12.42;69.47;102123.63;10151042;28;20504;-69
2022/03/03 15:49:19;;;;;;;9.30;4.63;;;;;;;12.16;72.33;102119.59;10150356;28;20053;-68
2022/03/03 15:54:18;;;;;;;6.03;3.47;;;;;;;11.49;77.51;102123.09;10151600;28;20055;-71
2022/03/03 15:59:15;;;;;;;8.25;4.32;;;;;;;11.09;77.60;102118.78;10157164;28;20057;-72
2022/03/03 16:04:12;;;;;;;8.32;3.95;;;;;;;10.99;75.76;102124.38;10165873;28;20050;-72
2022/03/03 16:14:08;;;;;;;8.18;4.40;;;;;;;10.70;81.86;102128.69;10142927;28;20073;-71
2022/03/03 16:19:07;;;;;;;8.43;4.25;;;;;;;10.40;83.72;102129.69;10142630;28;20437;-71
2022/03/03 16:24:05;;;;;;;9.85;4.57;;;;;;;10.18;85.40;102138.22;10144307;28;20085;-71
2022/03/03 16:29:22;;;;;;;11.77;5.13;;;;;;;9.97;89.72;102147.63;10140668;28;20074;-71
2022/03/03 16:34:19;;;;;;;9.20;5.38;;;;;;;9.73;92.37;102148.25;10149370;28;20377;-71
2022/03/03 16:39:16;;;;;;;8.35;4.47;;;;;;;9.46;94.89;102149.38;10151176;28;20034;-71
2022/03/03 16:44:15;;;;;;;10.25;5.30;;;;;;;9.37;97.48;102153.75;10143662;28;20055;-71
2022/03/03 16:49:13;;;;;;;9.38;5.30;;;;;;;9.13;100.00;102158.16;10168259;28;20049;-71
2022/03/03 16:54:11;;;;;;;14.20;6.78;;;;;;;8.70;100.00;102165.72;10152108;28;20050;-72
2022/03/03 16:59:09;;;;;;;12.63;6.45;;;;;;;8.75;100.00;102163.84;10135247;28;20149;-71
2022/03/03 17:04:07;;;;;;;15.52;6.13;;;;;;;8.59;100.00;102173.88;10148528;28;20489;-72
2022/03/03 17:09:04;;;;;;;18.95;7.78;;;;;;;8.52;100.00;102172.50;10145454;28;20085;-72
2022/03/03 17:14:02;;;;;;;12.63;7.40;;;;;;;8.17;100.00;102180.25;10144913;28;20121;-71
2022/03/03 17:18:58;;;;;;;16.85;7.47;;;;;;;7.90;100.00;102193.19;10143659;28;20094;-72
2022/03/03 17:23:55;;;;;;;15.80;7.47;;;;;;;7.81;100.00;102190.13;10145384;28;20058;-72
2022/03/03 17:28:52;;;;;;;13.70;7.47;;;;;;;7.56;100.00;102193.50;10128420;28;20530;-71
2022/03/03 17:33:49;;;;;;;14.25;7.25;;;;;;;7.35;100.00;102204.22;10142036;28;20098;-72
2022/03/03 17:38:46;;;;;;;14.27;7.07;;;;;;;7.35;100.00;102215.09;10142033;28;20077;-71
2022/03/03 17:43:43;;;;;;;14.93;7.63;;;;;;;7.18;100.00;102225.31;10144510;28;20484;-72
2022/03/03 17:48:39;;;;;;;14.38;7.70;;;;;;;6.99;100.00;102221.31;10135503;28;20096;-71
2022/03/03 17:53:36;;;;;;;11.52;7.13;;;;;;;6.82;100.00;102221.41;10138876;28;20500;-71
2022/03/03 17:58:32;;;;;;;13.35;7.13;;;;;;;6.75;100.00;102221.59;10138166;28;20100;-71
2022/03/03 18:03:29;;;;;;;15.73;8.82;;;;;;;6.62;100.00;102227.44;10138354;28;20638;-70
2022/03/03 18:08:26;;;;;;;16.15;7.28;;;;;;;6.29;100.00;102234.66;10136239;28;20046;-73
2022/03/03 18:13:23;;;;;;;13.63;8.45;;;;;;;6.30;100.00;102239.00;10140108;28;20473;-71
2022/03/03 18:18:20;;;;;;;14.50;8.32;;;;;;;6.14;100.00;102253.47;10143404;28;20046;-71
2022/03/03 18:23:21;;;;;;;15.40;8.13;;;;;;;6.06;100.00;102247.38;10119396;28;20042;-71
2022/03/03 18:28:17;;;;;;;15.48;8.63;;;;;;;5.94;100.00;102248.50;10128476;28;20093;-72
2022/03/03 18:33:16;;;;;;;14.60;8.75;;;;;;;5.82;100.00;102267.59;10146582;28;20074;-72
2022/03/03 18:38:14;;;;;;;16.60;8.70;;;;;;;5.73;100.00;102269.91;10137577;28;20477;-71
2022/03/03 18:43:13;;;;;;;17.27;9.07;;;;;;;5.58;100.00;102280.53;10160961;28;20149;-71
2022/03/03 18:48:14;;;;;;;16.08;9.43;;;;;;;5.40;100.00;102273.44;10144350;28;20046;-71
2022/03/03 18:53:13;;;;;;;16.73;8.98;;;;;;;5.19;100.00;102274.97;10141450;28;20105;-71
2022/03/03 18:58:10;;;;;;;16.38;9.60;;;;;;;5.23;100.00;102271.53;10124224;28;20053;-71
2022/03/03 19:03:06;;;;;;;16.02;9.40;;;;;;;4.97;100.00;102272.94;10137316;28;20149;-71
2022/03/03 19:08:03;;;;;;;15.68;9.90;;;;;;;5.05;100.00;102279.88;10139609;28;20130;-71
2022/03/03 19:12:59;;;;;;;17.83;10.35;;;;;;;4.91;100.00;102273.09;10147575;28;20046;-71
2022/03/03 19:17:57;;;;;;;17.52;10.35;;;;;;;4.75;100.00;102278.19;10141750;28;20081;-71
2022/03/03 19:22:54;;;;;;;16.83;9.35;;;;;;;4.67;100.00;102273.16;10143652;28;20070;-71
2022/03/03 19:27:50;;;;;;;19.42;10.27;;;;;;;4.56;100.00;102272.13;10142956;28;20545;-71
2022/03/03 19:38:04;;;;;;;16.65;10.68;;;;;;;4.38;100.00;102275.81;10137429;28;20046;-72
2022/03/03 19:43:04;;;;;;;18.10;10.35;;;;;;;4.28;100.00;102281.00;10147845;28;20065;-71
2022/03/03 19:48:03;;;;;;;16.60;10.48;;;;;;;4.25;100.00;102286.91;10140787;28;20063;-71
2022/03/03 19:53:00;;;;;;;18.92;10.20;;;;;;;4.20;100.00;102287.63;10149816;28;20050;-71
2022/03/03 19:57:57;;;;;;;18.33;10.07;;;;;;;4.18;100.00;102286.22;10136914;28;20057;-73
2022/03/03 20:02:53;;;;;;;16.40;9.93;;;;;;;4.17;100.00;102284.53;10144163;28;20050;-73
2022/03/03 20:07:50;;;;;;;18.23;11.75;;;;;;;4.04;100.00;102292.91;10129747;28;20097;-70
2022/03/03 20:12:46;;;;;;;18.92;10.70;;;;;;;3.88;100.00;102295.25;10138193;28;20108;-72
2022/03/03 20:17:46;;;;;;;18.27;11.02;;;;;;;3.58;100.00;102309.69;10142693;28;20056;-71
2022/03/03 20:22:43;;;;;;;17.85;10.02;;;;;;;3.61;100.00;102307.56;10143699;28;20138;-65
2022/03/03 20:27:40;;;;;;;18.70;10.43;;;;;;;3.53;100.00;102312.25;10144793;28;20405;-66
2022/03/03 20:32:38;;;;;;;18.58;11.05;;;;;;;3.49;100.00;102316.47;10149488;28;20039;-66
2022/03/03 20:37:34;;;;;;;19.10;11.10;;;;;;;3.37;100.00;102319.16;10149133;28;20058;-65
2022/03/03 20:42:31;;;;;;;19.67;11.25;;;;;;;3.20;100.00;102322.72;10145015;28;20043;-65
2022/03/03 20:47:28;;;;;;;18.33;11.23;;;;;;;3.12;100.00;102327.38;10149186;28;20571;-65
2022/03/03 20:52:24;;;;;;;18.48;10.52;;;;;;;3.01;100.00;102336.25;10156746;28;20047;-66
2022/03/03 20:57:21;;;;;;;19.13;10.98;;;;;;;2.96;100.00;102338.81;10141445;28;20046;-67
2022/03/03 21:02:17;;;;;;;18.40;10.88;;;;;;;2.89;100.00;102333.50;10154769;28;20125;-66
2022/03/03 21:07:18;;;;;;;20.75;11.85;;;;;;;2.83;100.00;102328.19;10138123;28;20047;-66
2022/03/03 21:12:34;;;;;;;23.63;11.90;;;;;;;2.69;100.00;102333.75;10140801;28;20077;-68
2022/03/03 21:17:33;;;;;;;20.85;12.20;;;;;;;2.69;100.00;102322.94;10126375;28;20046;-68
2022/03/03 21:22:30;;;;;;;23.95;12.43;;;;;;;2.60;100.00;102323.44;10155482;28;20505;-68
2022/03/03 21:27:27;;;;;;;21.90;12.45;;;;;;;2.48;100.00;102317.97;10141136;28;20081;-67
2022/03/03 21:32:23;;;;;;;22.33;12.85;;;;;;;2.43;100.00;102312.44;10157581;28;20062;-68
2022/03/03 21:37:20;;;;;;;20.13;12.65;;;;;;;2.38;100.00;102299.59;10150019;28;20601;-66
2022/03/03 21:42:21;;;;;;;20.63;12.65;;;;;;;2.35;100.00;102310.03;10157267;28;20134;-65
2022/03/03 21:47:18;;;;;;;23.80;12.63;;;;;;;2.25;100.00;102300.59;10156565;28;20527;-67
2022/03/03 21:52:14;;;;;;;22.20;12.90;;;;;;;2.20;100.00;102308.50;10156955;28;20077;-67
2022/03/03 21:57:11;;;;;;;21.42;12.25;;;;;;;2.19;100.00;102301.47;10134525;28;20104;-67
2022/03/03 22:02:08;;;;;;;22.63;13.02;;;;;;;2.10;100.00;102313.59;10154033;28;20077;-67
2022/03/03 22:07:04;;;;;;;26.67;13.40;;;;;;;2.05;100.00;102316.13;10153006;28;20046;-65
2022/03/03 22:12:01;;;;;;;20.42;12.00;;;;;;;2.02;100.00;102311.16;10155887;28;20074;-65
2022/03/03 22:17:00;;;;;;;21.10;12.20;;;;;;;1.94;100.00;102319.53;10142231;28;20505;-65
2022/03/03 22:21:58;;;;;;;22.75;12.95;;;;;;;1.83;100.00;102318.38;10134329;28;20061;-65
2022/03/03 22:26:54;;;;;;;21.67;12.45;;;;;;;1.86;100.00;102324.19;10127038;28;20078;-67
2022/03/03 22:31:51;;;;;;;23.35;12.70;;;;;;;1.76;100.00;102329.22;10155717;28;20046;-63
2022/03/03 22:36:47;;;;;;;23.48;13.48;;;;;;;1.77;100.00;102328.19;10141401;28;20112;-64
2022/03/03 22:41:44;;;;;;;27.40;13.75;;;;;;;1.69;100.00;102328.44;10153395;28;20082;-63
2022/03/03 22:46:41;;;;;;;26.38;13.80;;;;;;;1.70;100.00;102316.63;10152580;28;20054;-63